AirNav   Everest Fuels
 
 1038 users online  

C89 Sylvania Airport
Sturtevant, Wisconsin, USA

GOING TO STURTEVANT?


FAA INFORMATION EFFECTIVE 02 JANUARY 2020

Location

FAA Identifier: C89
Lat/Long: 42-42-11.7000N 087-57-32.3000W
42-42.195000N 087-57.538333W
42.7032500,-87.9589722
(estimated)
Elevation: 788.3 ft. / 240 m (estimated)
Variation: 01W (1985)
From city: 3 miles W of STURTEVANT, WI
Time zone: UTC -6 (UTC -5 during Daylight Saving Time)
Zip code: 53177

Airport Operations

Airport use: Open to the public
Control tower: no
ARTCC: CHICAGO CENTER
FSS: GREEN BAY FLIGHT SERVICE STATION
NOTAMs facility: GRB (NOTAM-D service available)
Attendance: IRREG
Wind indicator: lighted
Segmented circle: no
Lights: ACTVT PAPI RY 26L; MIRL RY 08R/26L - CTAF.
Beacon: white-green (lighted land airport)
ACTVT ARPT BCN - CTAF.

Airport Communications

CTAF/UNICOM: 122.8
WX ASOS at ENW (7 nm S): PHONE 262-652-7730
WX ASOS at RAC (7 nm NE): 121.425 (262-635-0959)
WX ASOS at MKE (15 nm N): PHONE 414-489-2168
WX AWOS-3 at BUU (15 nm W): 125.275 (262-757-0907)
WX ASOS at UGN (17 nm S): PHONE 847-782-0876
WX AWOS-3PT at 57C (19 nm W): 118.125 (262-642-1845)

Nearby radio navigation aids

VOR radial/distance  VOR name  Freq  Var
BAEr148/28.6BADGER VOR/DME116.4002E
OBKr001/28.9NORTHBROOK VOR/DME113.0002W

 
NDB name  Hdg/Dist  Freq  Var  ID
CODEE022/9.138902WEN . -.
LAKE LAWN091/28.040402WLVV .-.. ...- ...-

Airport Services

Fuel available: 100LL
24 HR FUEL AVBL WITH CREDIT CARD.
Parking: hangars and tiedowns
Airframe service: NONE
Powerplant service: NONE
Bottled oxygen: NONE
Bulk oxygen: NONE

Runway Information

Runway 8R/26L

Dimensions: 2272 x 38 ft. / 693 x 12 m
Surface: asphalt, in good condition
Runway edge lights: non-standard
RY 08R/26L NSTD MIRL.
Gradient: W
RUNWAY 8R  RUNWAY 26L
Latitude: 42-42.153878N42-42.220610N
Longitude: 087-57.786652W087-57.287683W
Elevation: 788.3 ft.771.0 ft.
Traffic pattern: leftleft
Displaced threshold: no121 ft.
Markings: basic, in good conditionbasic, in good condition
Visual slope indicator: 2-light PAPI on left
Runway end identifier lights: nono
Touchdown point: yes, no lightsyes, no lights
Obstructions: 18 ft. road, 320 ft. from runway, 140 ft. left of centerline, 6:1 slope to clear
20 FT TREES 25 FT FM THR 100 FT R.
18 ft. road, 200 ft. from runway
ROAD 33' LEFT OF CNTRLN.

Runway 8L/26R

Dimensions: 2343 x 120 ft. / 714 x 37 m
Surface: turf, in good condition
RUF AREA IN FNT OF SKY DIVING HNGR APPXLY 800 FT W OF RWY 26R THLD.
Gradient: W
RUNWAY 8L  RUNWAY 26R
Latitude: 42-42.167838N42-42.236087N
Longitude: 087-57.797432W087-57.282768W
Elevation: 787.3 ft.769.9 ft.
Traffic pattern: leftleft
Markings: nonenone
Runway end identifier lights: nono
Touchdown point: yes, no lightsyes, no lights
Obstructions: 18 ft. road, 110 ft. from runway, 150 ft. left of centerline, 6:1 slope to clear18 ft. road, 175 ft. from runway, 9:1 slope to clear

Airport Ownership and Management from official FAA records

Ownership: Privately-owned
Owner: ROBERT MC KAY
2624 SOUTH SYLVANIA AVE
STURTEVANT, WI 53177
Phone (847) 917-3209
Manager: PHIL LARDER
2624 SOUTH SYLVANIA AVE
STURTEVANT, WI 53177
Phone (847) 917-3209
EMAIL ADDRESS: PELARDER@AOL.COM (ALL LOWER CASE)

Airport Operational Statistics

Aircraft based on the field: 47
Single engine airplanes: 43
Multi engine airplanes: 3
Ultralights: 1
    
Aircraft operations: avg 63/day *
65% local general aviation
35% transient general aviation
* for 12-month period ending 18 June 2019

Additional Remarks

ULTRALIGHTS ON & IN VCNTY OF ARPT.
PARA ATVT ON & IN VCNTY OF ARPT.
RY 08R/26L CLSD TO HEL AUTOROTATION MNVRS.
FOR CD CTC CHICAGO ARTCC AT 630-906-8921.

Instrument Procedures

There are no published instrument procedures at C89.

Some nearby airports with instrument procedures:

KENW - Kenosha Regional Airport (7 nm S)
KRAC - Batten International Airport (7 nm NE)
KMKE - General Mitchell International Airport (15 nm N)
KBUU - Burlington Municipal Airport (15 nm W)
KUGN - Waukegan National Airport (17 nm S)
57C - East Troy Municipal Airport (19 nm W)
C02 - Grand Geneva Resort Airport (20 nm W)
 
Loc | Ops | Rwys | IFR | FBO | Links
Com | Nav | Svcs | Stats | Notes

General Mitchell International Airport
 
Area around C89 (Sylvania Airport)
 
Road maps at: MapQuest Bing Google
 
Aerial photo
WARNING: Photo may not be current or correct
Aerial photo of C89 (Sylvania Airport)
Photo taken 25-Sep-2006

Do you have a better or more recent aerial photo of Sylvania Airport that you would like to share? If so, please send us your photo.

 
Sectional chart

 
Airport distance calculator
Flying to Sylvania Airport? Find the distance to fly.

From to C89

Sunrise and sunset
Times for 20-Jan-2020
 Local
(UTC-6)
 Zulu
(UTC)
Morning civil twilight06:4712:47
Sunrise07:1813:18
Sunset16:4822:48
Evening civil twilight17:1923:19

Current date and time
Zulu (UTC)  21-Jan-2020 03:14:49
Local (UTC-6)  20-Jan-2020 21:14:49
 
METAR
KENW 
6nm S 
210253Z 29003KT 10SM CLR M08/M12 A3060 RMK AO2 SLP377 T10831117 58001 $
KRAC 
7nm NE 
210253Z AUTO 29004KT 10SM CLR M07/M11 A3061 RMK AO2 SLP380 T10721111 58001
KMKE 
15nm N 
210252Z 26003KT 10SM CLR M07/M11 A3059 RMK AO2 SLP374 T10671111 58003
KBUU 
15nm W 
210255Z AUTO 00000KT 10SM CLR M13/M14 A3060 RMK AO2 T11281136
KUGN 
18nm S 
210255Z AUTO 31004KT 10SM CLR M08/M12 A3060 RMK AO2 SLP384 T10831122 50001 $
K57C 
19nm W 
210255Z AUTO 00000KT 10SM CLR M11/M12 A3059 RMK AO2 T11151121
TAF
KENW 
6nm S 
202102Z 2021/2118 33005KT P6SM SCT025 FM210300 28005KT P6SM FEW250
KMKE 
15nm N 
202127Z 2021/2124 33005KT P6SM FEW025 FM210200 33005KT P6SM SKC FM211100 26006KT P6SM FEW250 FM212200 23010KT P6SM FEW250
NOTAMs
Click for the latest NOTAMs
NOTAMs are issued by the DoD/FAA and will open in a separate window not controlled by AirNav.

 

 
 

FBO, Fuel Providers, and Aircraft Ground Support

  
 Business Name 
 
 Contact 
 
 Services / Description 
 
Fuel Prices
 
Comments
  
Aeris Aviation toll-free 1-888-882-3747
no information available

If you are affiliated with Aeris Aviation and would like to show here your services, contact info, web link, logo, and more, click here
100LL
RA $3.90 
SS $4.30 
 Updated 04-Dec-2019
 
   write
RA=Restricted
SS=Self service
Update Fuel Prices
 

Would you like to see your business listed on this page?

 If your business provides an interesting product or service to pilots, flight crews, aircraft, or users of the Sylvania Airport, you should consider listing it here.  To start the listing process, click on the button below
 
Add a business
 

Other Pages about Sylvania Airport

Page from the Wisconsin airport directory (PDF)
 
Update a link
 
Copyright © AirNav, LLC. All rights reserved. Privacy Policy  Contact